sensor_id;sensor_type;location;lat;lon;timestamp;pressure;altitude;pressure_sealevel;temperature;humidity
18918;BME280;9591;52.742;13.650;2023-02-02T00:01:10;100190.63;;;4.26;100.00
18918;BME280;9591;52.742;13.650;2023-02-02T00:03:59;100197.66;;;4.22;100.00
18918;BME280;9591;52.742;13.650;2023-02-02T00:06:48;100200.31;;;4.19;100.00
18918;BME280;9591;52.742;13.650;2023-02-02T00:09:37;100181.88;;;4.25;100.00
18918;BME280;9591;52.742;13.650;2023-02-02T00:12:24;100181.84;;;4.27;100.00
18918;BME280;9591;52.742;13.650;2023-02-02T00:15:13;100156.34;;;4.35;100.00
18918;BME280;9591;52.742;13.650;2023-02-02T00:18:00;100177.41;;;4.32;100.00
18918;BME280;9591;52.742;13.650;2023-02-02T00:20:49;100181.78;;;4.32;100.00
18918;BME280;9591;52.742;13.650;2023-02-02T00:23:39;100166.09;;;4.30;100.00
18918;BME280;9591;52.742;13.650;2023-02-02T00:26:27;100171.31;;;4.32;100.00
18918;BME280;9591;52.742;13.650;2023-02-02T00:29:19;100161.75;;;4.27;100.00
18918;BME280;9591;52.742;13.650;2023-02-02T00:32:08;100160.94;;;4.24;100.00
18918;BME280;9591;52.742;13.650;2023-02-02T00:34:59;100158.22;;;4.30;100.00
18918;BME280;9591;52.742;13.650;2023-02-02T00:37:54;100160.06;;;4.23;100.00
18918;BME280;9591;52.742;13.650;2023-02-02T00:40:40;100149.47;;;4.31;100.00
18918;BME280;9591;52.742;13.650;2023-02-02T00:43:30;100148.50;;;4.35;100.00
18918;BME280;9591;52.742;13.650;2023-02-02T00:46:44;100161.56;;;4.38;100.00
18918;BME280;9591;52.742;13.650;2023-02-02T00:49:30;100165.25;;;4.28;100.00
18918;BME280;9591;52.742;13.650;2023-02-02T00:52:45;100159.09;;;4.29;100.00
18918;BME280;9591;52.742;13.650;2023-02-02T00:55:38;100156.50;;;4.29;100.00
18918;BME280;9591;52.742;13.650;2023-02-02T00:58:57;100158.34;;;4.22;100.00
18918;BME280;9591;52.742;13.650;2023-02-02T01:01:44;100169.75;;;4.18;100.00
18918;BME280;9591;52.742;13.650;2023-02-02T01:04:35;100179.34;;;4.19;100.00
18918;BME280;9591;52.742;13.650;2023-02-02T01:07:22;100185.47;;;4.18;100.00
18918;BME280;9591;52.742;13.650;2023-02-02T01:10:23;100181.25;;;4.10;100.00
18918;BME280;9591;52.742;13.650;2023-02-02T01:13:43;100168.34;;;3.96;100.00
18918;BME280;9591;52.742;13.650;2023-02-02T01:16:37;100164.03;;;3.92;100.00
18918;BME280;9591;52.742;13.650;2023-02-02T01:19:28;100173.63;;;3.93;100.00
18918;BME280;9591;52.742;13.650;2023-02-02T01:22:21;100170.16;;;3.91;100.00
18918;BME280;9591;52.742;13.650;2023-02-02T01:25:14;100161.50;;;3.84;100.00
18918;BME280;9591;52.742;13.650;2023-02-02T01:28:04;100158.03;;;3.82;100.00
18918;BME280;9591;52.742;13.650;2023-02-02T01:30:57;100164.91;;;3.91;100.00
18918;BME280;9591;52.742;13.650;2023-02-02T01:33:50;100164.06;;;3.89;100.00
18918;BME280;9591;52.742;13.650;2023-02-02T01:36:40;100159.75;;;3.85;100.00
18918;BME280;9591;52.742;13.650;2023-02-02T01:39:28;100161.50;;;3.84;100.00
18918;BME280;9591;52.742;13.650;2023-02-02T01:42:45;100171.88;;;3.92;100.00
18918;BME280;9591;52.742;13.650;2023-02-02T01:46:02;100176.25;;;3.93;100.00
18918;BME280;9591;52.742;13.650;2023-02-02T01:49:17;100171.84;;;3.95;100.00
18918;BME280;9591;52.742;13.650;2023-02-02T01:52:11;100178.03;;;3.89;100.00
18918;BME280;9591;52.742;13.650;2023-02-02T01:55:06;100192.84;;;3.92;100.00
18918;BME280;9591;52.742;13.650;2023-02-02T01:58:08;100176.28;;;3.88;100.00
18918;BME280;9591;52.742;13.650;2023-02-02T02:00:59;100186.66;;;3.98;100.00
18918;BME280;9591;52.742;13.650;2023-02-02T02:03:52;100191.03;;;3.97;100.00
18918;BME280;9591;52.742;13.650;2023-02-02T02:06:40;100186.56;;;4.04;100.00
18918;BME280;9591;52.742;13.650;2023-02-02T02:10:07;100203.97;;;4.08;100.00
18918;BME280;9591;52.742;13.650;2023-02-02T02:13:19;100221.41;;;4.12;100.00
18918;BME280;9591;52.742;13.650;2023-02-02T02:16:13;100221.34;;;4.15;100.00
18918;BME280;9591;52.742;13.650;2023-02-02T02:23:43;100230.94;;;4.16;100.00
18918;BME280;9591;52.742;13.650;2023-02-02T02:34:42;100267.47;;;4.30;100.00
18918;BME280;9591;52.742;13.650;2023-02-02T02:37:49;100252.69;;;4.24;100.00
18918;BME280;9591;52.742;13.650;2023-02-02T02:40:52;100262.19;;;4.31;100.00
18918;BME280;9591;52.742;13.650;2023-02-02T02:43:49;100257.84;;;4.30;100.00
18918;BME280;9591;52.742;13.650;2023-02-02T02:46:38;100253.38;;;4.34;100.00
18918;BME280;9591;52.742;13.650;2023-02-02T02:49:27;100266.44;;;4.38;100.00
18918;BME280;9591;52.742;13.650;2023-02-02T02:52:16;100268.13;;;4.42;100.00
18918;BME280;9591;52.742;13.650;2023-02-02T02:55:32;100274.28;;;4.40;100.00
18918;BME280;9591;52.742;13.650;2023-02-02T02:58:29;100275.06;;;4.45;100.00
18918;BME280;9591;52.742;13.650;2023-02-02T03:01:25;100295.19;;;4.44;100.00
18918;BME280;9591;52.742;13.650;2023-02-02T03:04:20;100290.81;;;4.45;100.00
18918;BME280;9591;52.742;13.650;2023-02-02T03:07:22;100309.97;;;4.50;100.00
18918;BME280;9591;52.742;13.650;2023-02-02T03:10:18;100311.78;;;4.46;100.00
18918;BME280;9591;52.742;13.650;2023-02-02T03:13:09;100303.03;;;4.46;100.00
18918;BME280;9591;52.742;13.650;2023-02-02T03:15:57;100322.22;;;4.49;100.00
18918;BME280;9591;52.742;13.650;2023-02-02T03:19:08;100337.09;;;4.47;100.00
18918;BME280;9591;52.742;13.650;2023-02-02T03:21:55;100338.81;;;4.51;100.00
18918;BME280;9591;52.742;13.650;2023-02-02T03:24:44;100344.94;;;4.50;100.00
18918;BME280;9591;52.742;13.650;2023-02-02T03:27:31;100344.88;;;4.55;100.00
18918;BME280;9591;52.742;13.650;2023-02-02T03:30:18;100346.72;;;4.48;100.00
18918;BME280;9591;52.742;13.650;2023-02-02T03:33:05;100361.44;;;4.57;100.00
18918;BME280;9591;52.742;13.650;2023-02-02T03:36:18;100373.69;;;4.58;100.00
18918;BME280;9591;52.742;13.650;2023-02-02T03:39:04;100371.91;;;4.60;100.00
18918;BME280;9591;52.742;13.650;2023-02-02T03:42:20;100372.81;;;4.57;100.00
18918;BME280;9591;52.742;13.650;2023-02-02T03:45:08;100385.88;;;4.62;100.00
18918;BME280;9591;52.742;13.650;2023-02-02T03:47:55;100378.94;;;4.58;100.00
18918;BME280;9591;52.742;13.650;2023-02-02T03:50:42;100384.16;;;4.58;100.00
18918;BME280;9591;52.742;13.650;2023-02-02T03:53:29;100384.09;;;4.64;100.00
18918;BME280;9591;52.742;13.650;2023-02-02T03:56:17;100392.78;;;4.68;100.00
18918;BME280;9591;52.742;13.650;2023-02-02T03:59:08;100396.31;;;4.65;100.00
18918;BME280;9591;52.742;13.650;2023-02-02T04:01:56;100397.25;;;4.61;100.00
18918;BME280;9591;52.742;13.650;2023-02-02T04:04:42;100407.59;;;4.72;100.00
18918;BME280;9591;52.742;13.650;2023-02-02T04:07:29;100407.69;;;4.66;100.00
18918;BME280;9591;52.742;13.650;2023-02-02T04:10:17;100429.50;;;4.68;100.00
18918;BME280;9591;52.742;13.650;2023-02-02T04:13:03;100434.91;;;4.55;100.00
18918;BME280;9591;52.742;13.650;2023-02-02T04:15:57;100327.44;;;3.83;100.00
18918;BME280;9591;52.742;13.650;2023-02-02T04:18:44;100439.38;;;4.49;100.00
18918;BME280;9591;52.742;13.650;2023-02-02T04:21:31;100453.34;;;4.49;100.00
18918;BME280;9591;52.742;13.650;2023-02-02T04:24:18;100452.53;;;4.43;100.00
18918;BME280;9591;52.742;13.650;2023-02-02T04:27:30;100462.16;;;4.44;100.00
18918;BME280;9591;52.742;13.650;2023-02-02T04:30:18;100469.16;;;4.42;100.00
18918;BME280;9591;52.742;13.650;2023-02-02T04:33:07;100467.44;;;4.41;100.00
18918;BME280;9591;52.742;13.650;2023-02-02T04:35:54;100478.75;;;4.44;100.00
18918;BME280;9591;52.742;13.650;2023-02-02T04:38:41;100490.09;;;4.46;100.00
18918;BME280;9591;52.742;13.650;2023-02-02T04:41:28;100491.91;;;4.41;100.00
18918;BME280;9591;52.742;13.650;2023-02-02T04:44:15;100500.69;;;4.37;100.00
18918;BME280;9591;52.742;13.650;2023-02-02T04:47:02;100498.06;;;4.36;100.00
18918;BME280;9591;52.742;13.650;2023-02-02T04:50:15;100506.03;;;4.30;100.00
18918;BME280;9591;52.742;13.650;2023-02-02T04:53:02;100510.44;;;4.26;100.00
18918;BME280;9591;52.742;13.650;2023-02-02T04:55:49;100518.34;;;4.23;100.00
18918;BME280;9591;52.742;13.650;2023-02-02T04:58:36;100521.84;;;4.20;100.00
18918;BME280;9591;52.742;13.650;2023-02-02T05:01:27;100526.19;;;4.24;100.00
18918;BME280;9591;52.742;13.650;2023-02-02T05:04:15;100534.06;;;4.24;100.00
18918;BME280;9591;52.742;13.650;2023-02-02T05:07:05;100534.91;;;4.25;100.00
18918;BME280;9591;52.742;13.650;2023-02-02T05:10:17;100540.97;;;4.33;100.00
18918;BME280;9591;52.742;13.650;2023-02-02T05:13:04;100541.84;;;4.31;100.00
18918;BME280;9591;52.742;13.650;2023-02-02T05:15:52;100548.00;;;4.28;100.00
18918;BME280;9591;52.742;13.650;2023-02-02T05:18:39;100557.69;;;4.21;100.00
18918;BME280;9591;52.742;13.650;2023-02-02T05:21:26;100560.25;;;4.26;100.00
18918;BME280;9591;52.742;13.650;2023-02-02T05:24:14;100574.13;;;4.34;100.00
18918;BME280;9591;52.742;13.650;2023-02-02T05:30:39;100574.22;;;4.30;100.00
18918;BME280;9591;52.742;13.650;2023-02-02T05:33:27;100582.06;;;4.30;100.00
18918;BME280;9591;52.742;13.650;2023-02-02T05:36:15;100575.09;;;4.27;100.00
18918;BME280;9591;52.742;13.650;2023-02-02T05:39:04;100591.78;;;4.18;100.00
18918;BME280;9591;52.742;13.650;2023-02-02T05:42:19;100589.19;;;4.14;100.00
18918;BME280;9591;52.742;13.650;2023-02-02T05:45:30;100597.97;;;4.10;100.00
18918;BME280;9591;52.742;13.650;2023-02-02T05:48:18;100609.34;;;4.06;100.00
18918;BME280;9591;52.742;13.650;2023-02-02T05:51:32;100605.88;;;4.04;100.00
18918;BME280;9591;52.742;13.650;2023-02-02T05:54:45;100616.34;;;4.07;100.00
18918;BME280;9591;52.742;13.650;2023-02-02T05:57:34;100621.59;;;4.05;100.00
18918;BME280;9591;52.742;13.650;2023-02-02T06:00:21;100623.34;;;4.02;100.00
18918;BME280;9591;52.742;13.650;2023-02-02T06:03:08;100623.41;;;3.95;100.00
18918;BME280;9591;52.742;13.650;2023-02-02T06:05:58;100635.56;;;4.06;100.00
18918;BME280;9591;52.742;13.650;2023-02-02T06:08:45;100643.41;;;4.07;100.00
18918;BME280;9591;52.742;13.650;2023-02-02T06:11:34;100653.91;;;4.07;100.00
18918;BME280;9591;52.742;13.650;2023-02-02T06:14:24;100661.75;;;4.09;100.00
18918;BME280;9591;52.742;13.650;2023-02-02T06:17:37;100673.13;;;4.08;100.00
18918;BME280;9591;52.742;13.650;2023-02-02T06:20:23;100672.28;;;4.00;100.00
18918;BME280;9591;52.742;13.650;2023-02-02T06:23:10;100686.19;;;4.11;100.00
18918;BME280;9591;52.742;13.650;2023-02-02T06:25:57;100683.56;;;4.14;100.00
18918;BME280;9591;52.742;13.650;2023-02-02T06:28:47;100702.78;;;4.14;100.00
18918;BME280;9591;52.742;13.650;2023-02-02T06:31:39;100698.38;;;4.18;100.00
18918;BME280;9591;52.742;13.650;2023-02-02T06:34:27;100708.06;;;4.08;100.00
18918;BME280;9591;52.742;13.650;2023-02-02T06:37:18;100712.44;;;4.08;100.00
18918;BME280;9591;52.742;13.650;2023-02-02T06:40:29;100722.06;;;4.03;100.00
18918;BME280;9591;52.742;13.650;2023-02-02T06:43:17;100721.22;;;4.01;100.00
18918;BME280;9591;52.742;13.650;2023-02-02T06:46:04;100722.97;;;4.00;100.00
18918;BME280;9591;52.742;13.650;2023-02-02T06:48:54;100724.69;;;4.01;100.00
18918;BME280;9591;52.742;13.650;2023-02-02T06:51:43;100725.56;;;4.00;100.00
18918;BME280;9591;52.742;13.650;2023-02-02T06:54:32;100731.69;;;4.04;100.00
18918;BME280;9591;52.742;13.650;2023-02-02T06:57:26;100743.91;;;4.02;100.00
18918;BME280;9591;52.742;13.650;2023-02-02T07:00:20;100746.47;;;4.12;100.00
18918;BME280;9591;52.742;13.650;2023-02-02T07:03:07;100749.13;;;4.09;100.00
18918;BME280;9591;52.742;13.650;2023-02-02T07:05:55;100749.97;;;4.14;100.00
18918;BME280;9591;52.742;13.650;2023-02-02T07:08:52;100755.22;;;4.13;100.00
18918;BME280;9591;52.742;13.650;2023-02-02T07:11:52;100764.81;;;4.17;100.00
18918;BME280;9591;52.742;13.650;2023-02-02T07:14:48;100763.09;;;4.13;100.00
18918;BME280;9591;52.742;13.650;2023-02-02T07:17:35;100769.19;;;4.16;100.00
18918;BME280;9591;52.742;13.650;2023-02-02T07:20:48;100779.66;;;4.18;100.00
18918;BME280;9591;52.742;13.650;2023-02-02T07:24:04;100794.50;;;4.20;100.00
18918;BME280;9591;52.742;13.650;2023-02-02T07:27:22;100795.38;;;4.22;100.00
18918;BME280;9591;52.742;13.650;2023-02-02T07:30:34;100807.56;;;4.30;100.00
18918;BME280;9591;52.742;13.650;2023-02-02T07:33:49;100816.31;;;4.30;100.00
18918;BME280;9591;52.742;13.650;2023-02-02T07:37:03;100822.41;;;4.32;100.00
18918;BME280;9591;52.742;13.650;2023-02-02T07:39:54;100815.34;;;4.37;100.00
18918;BME280;9591;52.742;13.650;2023-02-02T07:42:47;100829.34;;;4.36;100.00
18918;BME280;9591;52.742;13.650;2023-02-02T07:45:37;100831.09;;;4.34;100.00
18918;BME280;9591;52.742;13.650;2023-02-02T07:48:24;100834.56;;;4.42;100.00
18918;BME280;9591;52.742;13.650;2023-02-02T07:51:14;100827.56;;;4.44;100.00
18918;BME280;9591;52.742;13.650;2023-02-02T07:54:06;100825.78;;;4.46;100.00
18918;BME280;9591;52.742;13.650;2023-02-02T07:57:16;100827.56;;;4.44;100.00
18918;BME280;9591;52.742;13.650;2023-02-02T08:00:13;100832.75;;;4.50;100.00
18918;BME280;9591;52.742;13.650;2023-02-02T08:03:02;100839.78;;;4.48;100.00
18918;BME280;9591;52.742;13.650;2023-02-02T08:05:52;100838.88;;;4.51;100.00
18918;BME280;9591;52.742;13.650;2023-02-02T08:08:42;100852.84;;;4.54;100.00
18918;BME280;9591;52.742;13.650;2023-02-02T08:11:53;100861.56;;;4.58;100.00
18918;BME280;9591;52.742;13.650;2023-02-02T08:14:57;100867.72;;;4.55;100.00
18918;BME280;9591;52.742;13.650;2023-02-02T08:17:44;100858.13;;;4.51;100.00
18918;BME280;9591;52.742;13.650;2023-02-02T08:22:08;100884.41;;;4.41;100.00
18918;BME280;9591;52.742;13.650;2023-02-02T08:24:58;100891.41;;;4.39;100.00
18918;BME280;9591;52.742;13.650;2023-02-02T08:27:45;100887.00;;;4.45;100.00
18918;BME280;9591;52.742;13.650;2023-02-02T08:31:02;100900.00;;;4.70;100.00
18918;BME280;9591;52.742;13.650;2023-02-02T08:34:19;100909.56;;;4.80;100.00
18918;BME280;9591;52.742;13.650;2023-02-02T08:37:09;100910.41;;;4.83;100.00
18918;BME280;9591;52.742;13.650;2023-02-02T08:39:58;100923.53;;;4.85;100.00
18918;BME280;9591;52.742;13.650;2023-02-02T08:42:54;100922.66;;;4.84;100.00
18918;BME280;9591;52.742;13.650;2023-02-02T08:45:43;100924.41;;;4.82;100.00
18918;BME280;9591;52.742;13.650;2023-02-02T08:48:54;100933.16;;;4.84;100.00
18918;BME280;9591;52.742;13.650;2023-02-02T08:52:22;100926.16;;;4.85;100.00
18918;BME280;9591;52.742;13.650;2023-02-02T08:55:57;100810.22;;;4.19;100.00
18918;BME280;9591;52.742;13.650;2023-02-02T08:58:45;100939.25;;;4.89;100.00
18918;BME280;9591;52.742;13.650;2023-02-02T09:01:59;100940.97;;;4.93;100.00
18918;BME280;9591;52.742;13.650;2023-02-02T09:04:47;100936.59;;;4.97;100.00
18918;BME280;9591;52.742;13.650;2023-02-02T09:08:02;100933.91;;;5.03;100.00
18918;BME280;9591;52.742;13.650;2023-02-02T09:10:48;100945.28;;;5.05;100.00
18918;BME280;9591;52.742;13.650;2023-02-02T09:17:14;100943.47;;;5.16;100.00
18918;BME280;9591;52.742;13.650;2023-02-02T09:20:35;100948.59;;;5.28;100.00
18918;BME280;9591;52.742;13.650;2023-02-02T09:23:24;100936.34;;;5.26;100.00
18918;BME280;9591;52.742;13.650;2023-02-02T09:26:14;100956.47;;;5.32;100.00
18918;BME280;9591;52.742;13.650;2023-02-02T09:29:48;100954.56;;;5.49;100.00
18918;BME280;9591;52.742;13.650;2023-02-02T09:32:36;100959.75;;;5.58;100.00
18918;BME280;9591;52.742;13.650;2023-02-02T09:35:25;100956.28;;;5.56;100.00
18918;BME280;9591;52.742;13.650;2023-02-02T09:38:15;100961.56;;;5.50;100.00
18918;BME280;9591;52.742;13.650;2023-02-02T09:41:39;100969.56;;;5.35;100.00
18918;BME280;9591;52.742;13.650;2023-02-02T09:45:07;100973.13;;;5.27;100.00
18918;BME280;9591;52.742;13.650;2023-02-02T09:48:44;100984.53;;;5.23;100.00
18918;BME280;9591;52.742;13.650;2023-02-02T09:51:57;101023.03;;;5.24;100.00
18918;BME280;9591;52.742;13.650;2023-02-02T09:54:59;101023.28;;;4.79;100.00
18918;BME280;9591;52.742;13.650;2023-02-02T09:58:03;101026.06;;;4.30;100.00
18918;BME280;9591;52.742;13.650;2023-02-02T10:01:02;101025.22;;;4.10;100.00
18918;BME280;9591;52.742;13.650;2023-02-02T10:04:03;101029.59;;;4.05;100.00
18918;BME280;9591;52.742;13.650;2023-02-02T10:11:18;101031.34;;;4.19;100.00
18918;BME280;9591;52.742;13.650;2023-02-02T10:14:16;101026.09;;;4.18;100.00
18918;BME280;9591;52.742;13.650;2023-02-02T10:17:27;101023.47;;;4.19;100.00
18918;BME280;9591;52.742;13.650;2023-02-02T10:20:56;101019.09;;;4.26;100.00
18918;BME280;9591;52.742;13.650;2023-02-02T10:24:12;101023.41;;;4.42;100.00
18918;BME280;9591;52.742;13.650;2023-02-02T10:27:16;101013.72;;;4.58;100.00
18918;BME280;9591;52.742;13.650;2023-02-02T10:30:20;101016.28;;;4.78;100.00
18918;BME280;9591;52.742;13.650;2023-02-02T10:33:20;101011.78;;;5.09;100.00
18918;BME280;9591;52.742;13.650;2023-02-02T10:36:23;101019.50;;;5.28;100.00
18918;BME280;9591;52.742;13.650;2023-02-02T10:43:46;101017.69;;;5.41;100.00
18918;BME280;9591;52.742;13.650;2023-02-02T10:46:44;101020.19;;;5.58;100.00
18918;BME280;9591;52.742;13.650;2023-02-02T10:49:38;101023.53;;;5.81;100.00
18918;BME280;9591;52.742;13.650;2023-02-02T10:52:38;101034.34;;;6.43;100.00
18918;BME280;9591;52.742;13.650;2023-02-02T10:55:35;101029.75;;;6.63;100.00
18918;BME280;9591;52.742;13.650;2023-02-02T10:58:31;101032.34;;;6.68;100.00
18918;BME280;9591;52.742;13.650;2023-02-02T11:01:25;101038.31;;;6.80;100.00
18918;BME280;9591;52.742;13.650;2023-02-02T11:04:12;101050.06;;;6.50;100.00
18918;BME280;9591;52.742;13.650;2023-02-02T11:07:57;101055.22;;;6.61;100.00
18918;BME280;9591;52.742;13.650;2023-02-02T11:10:54;101069.16;;;6.69;100.00
18918;BME280;9591;52.742;13.650;2023-02-02T11:17:18;101084.19;;;6.58;100.00
18918;BME280;9591;52.742;13.650;2023-02-02T11:20:22;101093.41;;;6.11;100.00
18918;BME280;9591;52.742;13.650;2023-02-02T11:23:26;101103.22;;;5.89;100.00
18918;BME280;9591;52.742;13.650;2023-02-02T11:26:23;101109.31;;;5.96;100.00
18918;BME280;9591;52.742;13.650;2023-02-02T11:29:14;101116.28;;;6.02;100.00
18918;BME280;9591;52.742;13.650;2023-02-02T11:32:31;101110.94;;;6.09;100.00
18918;BME280;9591;52.742;13.650;2023-02-02T11:35:24;101084.78;;;5.97;100.00
18918;BME280;9591;52.742;13.650;2023-02-02T11:38:16;101123.13;;;6.21;100.00
18918;BME280;9591;52.742;13.650;2023-02-02T11:41:08;101117.06;;;6.11;100.00
18918;BME280;9591;52.742;13.650;2023-02-02T11:44:19;101125.94;;;6.03;100.00
18918;BME280;9591;52.742;13.650;2023-02-02T11:47:18;101145.94;;;6.19;100.00
18918;BME280;9591;52.742;13.650;2023-02-02T11:50:17;101155.38;;;6.44;100.00
18918;BME280;9591;52.742;13.650;2023-02-02T11:53:20;101141.22;;;6.59;100.00
18918;BME280;9591;52.742;13.650;2023-02-02T11:56:22;101145.66;;;6.52;100.00
18918;BME280;9591;52.742;13.650;2023-02-02T11:59:32;101141.22;;;6.57;100.00
18918;BME280;9591;52.742;13.650;2023-02-02T12:02:52;101162.28;;;6.57;100.00
18918;BME280;9591;52.742;13.650;2023-02-02T12:05:44;101168.66;;;6.29;100.00
18918;BME280;9591;52.742;13.650;2023-02-02T12:09:23;101161.94;;;5.85;100.00
18918;BME280;9591;52.742;13.650;2023-02-02T12:12:25;101170.81;;;5.63;100.00
18918;BME280;9591;52.742;13.650;2023-02-02T12:18:51;101182.31;;;5.38;100.00
18918;BME280;9591;52.742;13.650;2023-02-02T12:21:55;101180.59;;;5.29;100.00
18918;BME280;9591;52.742;13.650;2023-02-02T12:29:29;101200.81;;;5.03;100.00
18918;BME280;9591;52.742;13.650;2023-02-02T12:36:52;101206.06;;;5.04;100.00
18918;BME280;9591;52.742;13.650;2023-02-02T12:40:12;101204.34;;;5.00;100.00
18918;BME280;9591;52.742;13.650;2023-02-02T12:43:35;101201.69;;;5.03;100.00
18918;BME280;9591;52.742;13.650;2023-02-02T13:01:04;101233.00;;;5.66;100.00
18918;BME280;9591;52.742;13.650;2023-02-02T13:04:56;101238.28;;;5.56;100.00
18918;BME280;9591;52.742;13.650;2023-02-02T13:07:50;101236.56;;;5.51;100.00
18918;BME280;9591;52.742;13.650;2023-02-02T13:11:08;101246.22;;;5.47;100.00
18918;BME280;9591;52.742;13.650;2023-02-02T13:14:25;101251.47;;;5.40;100.00
18918;BME280;9591;52.742;13.650;2023-02-02T13:17:43;101263.75;;;5.39;100.00
18918;BME280;9591;52.742;13.650;2023-02-02T13:21:03;101272.50;;;5.34;100.00
18918;BME280;9591;52.742;13.650;2023-02-02T13:24:03;101274.28;;;5.24;100.00
18918;BME280;9591;52.742;13.650;2023-02-02T13:27:17;101284.78;;;5.30;100.00
18918;BME280;9591;52.742;13.650;2023-02-02T13:30:29;101292.72;;;5.07;100.00
18918;BME280;9591;52.742;13.650;2023-02-02T13:33:53;101290.09;;;5.06;100.00
18918;BME280;9591;52.742;13.650;2023-02-02T13:36:45;101306.72;;;5.14;100.00
18918;BME280;9591;52.742;13.650;2023-02-02T13:39:59;101309.31;;;5.23;100.00
18918;BME280;9591;52.742;13.650;2023-02-02T13:43:04;101313.72;;;5.19;100.00
18918;BME280;9591;52.742;13.650;2023-02-02T13:46:44;101323.28;;;5.40;100.00
18918;BME280;9591;52.742;13.650;2023-02-02T13:49:48;101325.94;;;5.25;100.00
18918;BME280;9591;52.742;13.650;2023-02-02T13:53:00;101350.44;;;5.32;100.00
18918;BME280;9591;52.742;13.650;2023-02-02T13:56:18;101356.59;;;5.14;100.00
18918;BME280;9591;52.742;13.650;2023-02-02T13:59:35;101364.47;;;5.03;100.00
18918;BME280;9591;52.742;13.650;2023-02-02T14:06:12;101368.78;;;4.60;100.00
18918;BME280;9591;52.742;13.650;2023-02-02T14:09:30;101383.66;;;4.64;100.00
18918;BME280;9591;52.742;13.650;2023-02-02T14:12:45;101389.75;;;4.51;100.00
18918;BME280;9591;52.742;13.650;2023-02-02T14:16:01;101395.84;;;4.39;100.00
18918;BME280;9591;52.742;13.650;2023-02-02T14:22:51;101406.34;;;4.45;100.00
18918;BME280;9591;52.742;13.650;2023-02-02T14:28:51;101418.59;;;4.51;100.00
18918;BME280;9591;52.742;13.650;2023-02-02T14:35:58;101433.44;;;4.44;100.00
18918;BME280;9591;52.742;13.650;2023-02-02T14:39:21;101449.13;;;4.34;100.00
18918;BME280;9591;52.742;13.650;2023-02-02T14:49:43;101477.81;;;4.02;100.00
18918;BME280;9591;52.742;13.650;2023-02-02T14:53:04;101488.25;;;3.94;100.00
18918;BME280;9591;52.742;13.650;2023-02-02T14:56:57;101489.91;;;3.78;100.00
18918;BME280;9591;52.742;13.650;2023-02-02T14:59:52;101499.44;;;3.69;100.00
18918;BME280;9591;52.742;13.650;2023-02-02T15:02:48;101508.91;;;3.56;100.00
18918;BME280;9591;52.742;13.650;2023-02-02T15:05:42;101515.88;;;3.52;100.00
18918;BME280;9591;52.742;13.650;2023-02-02T15:12:37;101529.97;;;3.65;100.00
18918;BME280;9591;52.742;13.650;2023-02-02T15:16:19;101534.03;;;3.31;100.00
18918;BME280;9591;52.742;13.650;2023-02-02T15:19:23;101542.63;;;3.19;100.00
18918;BME280;9591;52.742;13.650;2023-02-02T15:22:24;101548.59;;;3.06;100.00
18918;BME280;9591;52.742;13.650;2023-02-02T15:25:20;101559.00;;;3.00;100.00
18918;BME280;9591;52.742;13.650;2023-02-02T15:28:39;101549.13;;;2.78;100.00
18918;BME280;9591;52.742;13.650;2023-02-02T15:31:48;101559.50;;;2.72;100.00
18918;BME280;9591;52.742;13.650;2023-02-02T15:35:26;101570.72;;;2.60;100.00
18918;BME280;9591;52.742;13.650;2023-02-02T15:38:33;101572.25;;;2.44;100.00
18918;BME280;9591;52.742;13.650;2023-02-02T15:41:52;101565.94;;;2.30;100.00
18918;BME280;9591;52.742;13.650;2023-02-02T15:45:29;101576.28;;;2.22;100.00
18918;BME280;9591;52.742;13.650;2023-02-02T15:48:23;101582.16;;;2.09;100.00
18918;BME280;9591;52.742;13.650;2023-02-02T15:51:30;101597.47;;;1.86;100.00
18918;BME280;9591;52.742;13.650;2023-02-02T15:54:29;101595.34;;;1.64;100.00
18918;BME280;9591;52.742;13.650;2023-02-02T15:57:30;101606.66;;;1.63;100.00
18918;BME280;9591;52.742;13.650;2023-02-02T16:00:53;101610.75;;;1.49;100.00
18918;BME280;9591;52.742;13.650;2023-02-02T16:04:07;101623.50;;;1.34;100.00
18918;BME280;9591;52.742;13.650;2023-02-02T16:07:03;101554.59;;;0.80;100.00
18918;BME280;9591;52.742;13.650;2023-02-02T16:10:16;101637.81;;;1.10;100.00
18918;BME280;9591;52.742;13.650;2023-02-02T16:13:57;101637.41;;;0.92;100.00
18918;BME280;9591;52.742;13.650;2023-02-02T16:16:51;101638.13;;;0.83;100.00
18918;BME280;9591;52.742;13.650;2023-02-02T16:19:46;101651.00;;;0.76;100.00
18918;BME280;9591;52.742;13.650;2023-02-02T16:22:41;101664.69;;;0.65;100.00
18918;BME280;9591;52.742;13.650;2023-02-02T16:26:50;101670.56;;;0.57;100.00
18918;BME280;9591;52.742;13.650;2023-02-02T16:29:40;101672.22;;;0.53;100.00
18918;BME280;9591;52.742;13.650;2023-02-02T16:36:25;101677.69;;;0.28;100.00
18918;BME280;9591;52.742;13.650;2023-02-02T16:39:47;101693.16;;;0.22;100.00
18918;BME280;9591;52.742;13.650;2023-02-02T16:42:33;101701.63;;;0.13;100.00
18918;BME280;9591;52.742;13.650;2023-02-02T16:45:32;101706.63;;;0.06;100.00
18918;BME280;9591;52.742;13.650;2023-02-02T16:48:40;101706.50;;;-0.01;100.00
18918;BME280;9591;52.742;13.650;2023-02-02T16:52:14;101713.31;;;-0.06;100.00
18918;BME280;9591;52.742;13.650;2023-02-02T16:55:08;101717.41;;;-0.15;100.00
18918;BME280;9591;52.742;13.650;2023-02-02T16:57:55;101725.97;;;-0.19;100.00
18918;BME280;9591;52.742;13.650;2023-02-02T17:05:19;101733.56;;;-0.27;100.00
18918;BME280;9591;52.742;13.650;2023-02-02T17:08:12;101739.63;;;-0.28;100.00
18918;BME280;9591;52.742;13.650;2023-02-02T17:11:06;101752.53;;;-0.31;100.00
18918;BME280;9591;52.742;13.650;2023-02-02T17:14:30;101751.75;;;-0.28;100.00
18918;BME280;9591;52.742;13.650;2023-02-02T17:17:19;101753.31;;;-0.35;100.00